Time;durP1;ratioP1;P1;durP2;ratioP2;P2;SDS_P1;SDS_P2;PMS_P1;PMS_P2;Temp;Humidity;BMP_temperature;BMP_pressure;BME280_temperature;BME280_humidity;BME280_pressure;Samples;Min_cycle;Max_cycle;Signal;HPM_P1;HPM_P2
2021/05/14 00:02:06;;;;;;;1.55;0.32;;;11.80;99.90;;;;;;5034614;28;20041;-78
2021/05/14 00:04:32;;;;;;;2.58;0.40;;;11.80;99.90;;;;;;5035124;28;20033;-78
2021/05/14 00:06:57;;;;;;;0.70;0.35;;;11.90;99.90;;;;;;5042396;28;20052;-78
2021/05/14 00:09:23;;;;;;;1.25;0.30;;;11.70;99.90;;;;;;5034896;28;20025;-76
2021/05/14 00:11:49;;;;;;;3.55;0.50;;;11.50;99.90;;;;;;5036767;28;20049;-78
2021/05/14 00:14:15;;;;;;;1.55;0.52;;;11.50;99.90;;;;;;5037261;28;20025;-78
2021/05/14 00:16:41;;;;;;;2.58;0.50;;;11.40;99.90;;;;;;5041746;28;20041;-78
2021/05/14 00:19:07;;;;;;;1.35;0.20;;;11.30;99.90;;;;;;5034406;28;20032;-77
2021/05/14 00:21:33;;;;;;;2.10;0.40;;;11.30;99.90;;;;;;5040885;28;20582;-77
2021/05/14 00:23:59;;;;;;;0.85;0.40;;;11.30;99.90;;;;;;5035509;28;20074;-78
2021/05/14 00:26:25;;;;;;;1.02;0.30;;;11.30;99.90;;;;;;5037255;28;20120;-78
2021/05/14 00:28:51;;;;;;;1.98;0.60;;;11.40;99.90;;;;;;5039012;28;20421;-78
2021/05/14 00:31:18;;;;;;;2.90;0.45;;;11.40;99.90;;;;;;5038983;28;20021;-78
2021/05/14 00:33:43;;;;;;;0.55;0.30;;;11.40;99.90;;;;;;5038912;28;20175;-78
2021/05/14 00:36:10;;;;;;;1.00;0.30;;;11.50;99.90;;;;;;5034213;28;20133;-78
2021/05/14 00:38:36;;;;;;;0.73;0.30;;;11.60;99.90;;;;;;5042282;28;20030;-80
2021/05/14 00:41:02;;;;;;;1.23;0.40;;;11.70;99.90;;;;;;5034769;28;20029;-77
2021/05/14 00:43:29;;;;;;;1.02;0.35;;;11.70;99.90;;;;;;5034301;28;20112;-78
2021/05/14 00:45:54;;;;;;;2.17;0.32;;;11.70;99.90;;;;;;5033988;28;20040;-78
2021/05/14 00:48:20;;;;;;;1.40;0.38;;;11.70;99.90;;;;;;5033953;28;20033;-78
2021/05/14 00:50:46;;;;;;;2.13;0.38;;;11.60;99.90;;;;;;5040081;28;20025;-77
2021/05/14 00:53:12;;;;;;;1.30;0.60;;;11.40;99.90;;;;;;5033578;28;20034;-78
2021/05/14 00:55:38;;;;;;;0.47;0.20;;;11.40;99.90;;;;;;5034305;28;20032;-78
2021/05/14 00:58:03;;;;;;;1.33;0.40;;;11.40;99.90;;;;;;5033249;28;20033;-77
2021/05/14 01:00:29;;;;;;;2.28;0.40;;;11.50;99.90;;;;;;5034238;28;20033;-78
2021/05/14 01:02:55;;;;;;;1.90;0.45;;;11.60;99.90;;;;;;5033737;28;20029;-78
2021/05/14 01:05:22;;;;;;;0.55;0.20;;;11.50;99.90;;;;;;5033349;28;20075;-78
2021/05/14 01:07:51;;;;;;;1.08;0.50;;;11.60;99.90;;;;;;5033524;28;20017;-78
2021/05/14 01:10:18;;;;;;;1.38;0.40;;;11.60;99.90;;;;;;5033141;28;20084;-79
2021/05/14 01:12:44;;;;;;;1.00;0.40;;;11.70;99.90;;;;;;5041176;28;20045;-78
2021/05/14 01:15:11;;;;;;;3.08;0.60;;;11.70;99.90;;;;;;5037166;28;20025;-78
2021/05/14 01:17:37;;;;;;;1.75;0.32;;;11.60;99.90;;;;;;5033776;28;20112;-78
2021/05/14 01:20:04;;;;;;;1.33;0.35;;;11.40;99.90;;;;;;5039089;28;20104;-77
2021/05/14 01:22:30;;;;;;;1.30;0.32;;;11.40;99.90;;;;;;5033473;28;20553;-78
2021/05/14 01:24:56;;;;;;;0.77;0.40;;;11.40;99.90;;;;;;5033453;28;20036;-77
2021/05/14 01:27:22;;;;;;;1.20;0.50;;;11.40;99.90;;;;;;5038592;28;20378;-78
2021/05/14 01:29:48;;;;;;;1.27;0.40;;;11.30;99.90;;;;;;5037187;28;20091;-79
2021/05/14 01:32:14;;;;;;;0.68;0.38;;;11.40;99.90;;;;;;5042165;28;20104;-77
2021/05/14 01:34:41;;;;;;;1.02;0.20;;;11.50;99.90;;;;;;5033307;28;20361;-78
2021/05/14 01:37:07;;;;;;;2.05;0.50;;;11.50;99.90;;;;;;5032898;28;20087;-78
2021/05/14 01:39:32;;;;;;;1.02;0.32;;;11.50;99.90;;;;;;5032828;28;20037;-81
2021/05/14 01:41:59;;;;;;;1.13;0.40;;;11.30;99.90;;;;;;5032530;28;20018;-78
2021/05/14 01:44:25;;;;;;;0.88;0.55;;;11.40;99.90;;;;;;5038191;28;20025;-77
2021/05/14 01:46:51;;;;;;;2.22;0.50;;;11.50;99.90;;;;;;5033158;28;20557;-80
2021/05/14 01:49:16;;;;;;;2.03;0.47;;;11.50;99.90;;;;;;5039613;28;20498;-78
2021/05/14 01:51:42;;;;;;;0.65;0.30;;;11.30;99.90;;;;;;5032874;28;20041;-78
2021/05/14 01:54:08;;;;;;;1.10;0.50;;;11.40;99.90;;;;;;5032564;28;20025;-78
2021/05/14 01:56:34;;;;;;;0.88;0.35;;;11.30;99.90;;;;;;5033025;28;20025;-78
2021/05/14 01:58:59;;;;;;;1.17;0.40;;;11.40;99.90;;;;;;5031479;28;20044;-78
2021/05/14 02:01:26;;;;;;;0.63;0.30;;;11.40;99.90;;;;;;5040038;28;20033;-80
2021/05/14 02:03:52;;;;;;;0.35;0.30;;;11.40;99.90;;;;;;5031961;28;20534;-79
2021/05/14 02:06:18;;;;;;;1.30;0.60;;;11.40;99.90;;;;;;5034684;28;20106;-78
2021/05/14 02:08:45;;;;;;;2.13;0.70;;;11.60;99.90;;;;;;5040368;28;20025;-78
2021/05/14 02:11:11;;;;;;;1.10;0.52;;;11.70;99.90;;;;;;5031128;28;20061;-78
2021/05/14 02:13:40;;;;;;;3.20;0.50;;;11.80;99.90;;;;;;5032819;28;20041;-78
2021/05/14 02:16:08;;;;;;;1.08;0.50;;;11.60;99.90;;;;;;5033952;28;20033;-78
2021/05/14 02:18:35;;;;;;;1.52;0.52;;;11.60;99.90;;;;;;5032667;28;20029;-78
2021/05/14 02:21:01;;;;;;;0.77;0.50;;;11.60;99.90;;;;;;5032088;28;20479;-77
2021/05/14 02:23:27;;;;;;;0.95;0.50;;;11.60;99.90;;;;;;5040268;28;20090;-78
2021/05/14 02:25:53;;;;;;;2.55;0.80;;;11.50;99.90;;;;;;5039494;28;20025;-78
2021/05/14 02:28:19;;;;;;;2.90;0.60;;;11.40;99.90;;;;;;5044395;28;20029;-78
2021/05/14 02:30:44;;;;;;;0.90;0.57;;;11.30;99.90;;;;;;5038034;28;20421;-77
2021/05/14 02:33:10;;;;;;;1.33;0.65;;;11.30;99.90;;;;;;5034348;28;20029;-77
2021/05/14 02:35:36;;;;;;;1.15;0.50;;;11.20;99.90;;;;;;5032045;28;20108;-78
2021/05/14 02:38:03;;;;;;;1.05;0.50;;;11.20;99.90;;;;;;5033406;28;20031;-78
2021/05/14 02:40:29;;;;;;;0.82;0.50;;;11.30;99.90;;;;;;5038943;28;20025;-78
2021/05/14 02:42:55;;;;;;;1.83;0.50;;;11.50;99.90;;;;;;5031563;28;20534;-78
2021/05/14 02:45:22;;;;;;;1.30;0.50;;;11.60;99.90;;;;;;5032152;28;20033;-78
2021/05/14 02:47:48;;;;;;;4.47;0.88;;;11.60;99.90;;;;;;5030420;28;20095;-78
2021/05/14 02:50:14;;;;;;;1.33;0.57;;;11.60;99.90;;;;;;5041223;28;20478;-78
2021/05/14 02:52:41;;;;;;;0.82;0.50;;;11.70;99.90;;;;;;5032417;28;20045;-78
2021/05/14 02:55:08;;;;;;;0.88;0.38;;;11.70;99.90;;;;;;5031410;28;20033;-78
2021/05/14 02:57:34;;;;;;;1.50;0.70;;;11.80;99.90;;;;;;5046192;28;20545;-78
2021/05/14 03:00:01;;;;;;;1.63;0.52;;;11.80;99.90;;;;;;5038861;28;20036;-78
2021/05/14 03:02:27;;;;;;;1.05;0.43;;;11.80;99.90;;;;;;5037156;28;20037;-78
2021/05/14 03:04:53;;;;;;;1.20;0.50;;;11.80;99.90;;;;;;5024327;28;20029;-78
2021/05/14 03:07:20;;;;;;;3.38;0.68;;;11.70;99.90;;;;;;5035918;28;20486;-78
2021/05/14 03:09:46;;;;;;;1.63;0.40;;;11.70;99.90;;;;;;5025092;28;20079;-79
2021/05/14 03:12:12;;;;;;;1.23;0.50;;;11.70;99.90;;;;;;5023847;28;20495;-79
2021/05/14 03:14:38;;;;;;;2.15;0.60;;;11.70;99.90;;;;;;5028198;28;20033;-78
2021/05/14 03:17:04;;;;;;;0.73;0.30;;;11.70;99.90;;;;;;5027145;28;20746;-77
2021/05/14 03:19:29;;;;;;;1.60;0.60;;;11.60;99.90;;;;;;5031730;28;20037;-80
2021/05/14 03:21:55;;;;;;;0.57;0.35;;;11.60;99.90;;;;;;5024843;28;20055;-78
2021/05/14 03:24:21;;;;;;;2.40;0.57;;;11.40;99.90;;;;;;5023966;28;20095;-79
2021/05/14 03:26:51;;;;;;;0.77;0.30;;;11.40;99.90;;;;;;5029288;28;20017;-77
2021/05/14 03:29:17;;;;;;;0.82;0.30;;;11.20;99.90;;;;;;5025820;28;20021;-77
2021/05/14 03:31:43;;;;;;;0.88;0.32;;;11.30;99.90;;;;;;5023433;28;20491;-78
2021/05/14 03:34:08;;;;;;;0.68;0.30;;;11.20;99.90;;;;;;5032478;28;20036;-77
2021/05/14 03:36:34;;;;;;;0.73;0.30;;;11.20;99.90;;;;;;5030273;28;20033;-77
2021/05/14 03:39:00;;;;;;;2.55;0.40;;;11.20;99.90;;;;;;5039284;28;20029;-77
2021/05/14 03:43:54;;;;;;;0.77;0.30;;;11.30;99.90;;;;;;5030515;28;20062;-78
2021/05/14 03:46:20;;;;;;;0.95;0.25;;;11.30;99.90;;;;;;5025201;28;20832;-79
2021/05/14 03:48:46;;;;;;;0.73;0.38;;;11.30;99.90;;;;;;5029032;28;20052;-80
2021/05/14 03:51:11;;;;;;;1.70;0.82;;;11.40;99.90;;;;;;5026733;28;20571;-79
2021/05/14 03:53:37;;;;;;;0.40;0.20;;;11.40;99.90;;;;;;5024422;28;20033;-79
2021/05/14 03:56:03;;;;;;;0.93;0.40;;;11.50;99.90;;;;;;5022960;28;20029;-78
2021/05/14 03:58:29;;;;;;;1.08;0.57;;;11.60;99.90;;;;;;5024536;28;20041;-79
2021/05/14 04:00:54;;;;;;;0.57;0.22;;;11.60;99.90;;;;;;5024211;28;20675;-79
2021/05/14 04:03:22;;;;;;;0.55;0.30;;;11.30;99.90;;;;;;5024997;28;20044;-78
2021/05/14 04:05:48;;;;;;;2.72;0.50;;;11.30;99.90;;;;;;5024108;28;20171;-78
2021/05/14 04:08:15;;;;;;;1.65;0.40;;;11.20;99.90;;;;;;5023835;28;20028;-78
2021/05/14 04:16:06;;;;;;;3.60;0.88;;;11.00;99.90;;;;;;5028965;28;20048;-79
2021/05/14 04:18:33;;;;;;;0.88;0.45;;;11.10;99.90;;;;;;5023605;28;20025;-79
2021/05/14 04:20:58;;;;;;;0.40;0.30;;;11.20;99.90;;;;;;5024510;28;20069;-77
2021/05/14 04:23:24;;;;;;;1.30;0.40;;;11.30;99.90;;;;;;5030438;28;20045;-78
2021/05/14 04:25:50;;;;;;;1.00;0.30;;;11.40;99.90;;;;;;5030422;28;20086;-78
2021/05/14 04:28:16;;;;;;;2.25;0.50;;;11.40;99.90;;;;;;5029105;28;20532;-78
2021/05/14 04:30:41;;;;;;;2.90;0.40;;;11.40;99.90;;;;;;5027681;28;20072;-80
2021/05/14 04:33:07;;;;;;;1.17;0.45;;;11.20;99.90;;;;;;5027197;28;20076;-78
2021/05/14 04:35:33;;;;;;;1.17;0.40;;;11.30;99.90;;;;;;5029158;28;20711;-79
2021/05/14 04:38:00;;;;;;;1.75;0.45;;;11.10;99.90;;;;;;5035066;28;20029;-78
2021/05/14 04:40:26;;;;;;;1.77;0.45;;;11.20;99.90;;;;;;5034854;28;20048;-78
2021/05/14 04:42:52;;;;;;;3.83;0.43;;;11.20;99.90;;;;;;5033551;28;20544;-78
2021/05/14 04:45:18;;;;;;;0.77;0.38;;;11.30;99.90;;;;;;5029239;28;20029;-81
2021/05/14 04:47:44;;;;;;;0.95;0.30;;;11.30;99.90;;;;;;5033307;28;20369;-78
2021/05/14 04:50:17;;;;;;;1.15;0.60;;;11.30;99.90;;;;;;5026745;28;20036;-79
2021/05/14 04:52:43;;;;;;;1.52;0.40;;;11.40;99.90;;;;;;5027538;28;20099;-78
2021/05/14 04:55:10;;;;;;;0.95;0.43;;;11.50;99.90;;;;;;5027331;28;20108;-79
2021/05/14 04:57:35;;;;;;;0.35;0.32;;;11.60;99.90;;;;;;5027090;28;20656;-78
2021/05/14 05:00:01;;;;;;;1.27;0.40;;;11.70;99.90;;;;;;5033370;28;20033;-78
2021/05/14 05:02:27;;;;;;;0.63;0.32;;;11.70;99.90;;;;;;5030675;28;20037;-78
2021/05/14 05:04:56;;;;;;;1.17;0.43;;;11.70;99.90;;;;;;5030764;28;20517;-80
2021/05/14 05:07:22;;;;;;;1.30;0.40;;;11.80;99.90;;;;;;5030479;28;20029;-79
2021/05/14 05:09:48;;;;;;;1.05;0.38;;;11.90;99.90;;;;;;5026910;28;20022;-78
2021/05/14 05:12:13;;;;;;;3.22;0.32;;;12.00;99.90;;;;;;5034485;28;20041;-78
2021/05/14 05:14:40;;;;;;;1.23;0.55;;;12.10;99.90;;;;;;5027039;28;20104;-79
2021/05/14 05:17:05;;;;;;;0.52;0.25;;;12.20;99.90;;;;;;5026802;28;20029;-78
2021/05/14 05:19:31;;;;;;;3.15;0.40;;;12.30;99.90;;;;;;5027146;28;20036;-79
2021/05/14 05:21:57;;;;;;;0.50;0.40;;;12.40;99.90;;;;;;5028292;28;20546;-78
2021/05/14 05:24:22;;;;;;;0.88;0.40;;;12.30;99.90;;;;;;5026445;28;20031;-78
2021/05/14 05:26:48;;;;;;;1.92;0.30;;;12.30;99.90;;;;;;5031063;28;20037;-79
2021/05/14 05:29:14;;;;;;;1.38;0.60;;;12.40;99.90;;;;;;5029458;28;20032;-86
2021/05/14 05:31:39;;;;;;;2.53;0.52;;;12.40;99.90;;;;;;5030539;28;20029;-79
2021/05/14 05:34:06;;;;;;;1.08;0.50;;;12.40;99.90;;;;;;5046329;28;20545;-78
2021/05/14 05:36:32;;;;;;;1.55;0.50;;;12.40;99.90;;;;;;5045681;28;20025;-77
2021/05/14 05:38:57;;;;;;;0.68;0.45;;;12.30;99.90;;;;;;5046100;28;20031;-78
2021/05/14 05:41:23;;;;;;;1.58;0.70;;;12.40;99.90;;;;;;5044163;28;20348;-79
2021/05/14 05:43:49;;;;;;;1.10;0.40;;;12.60;99.90;;;;;;5045626;28;20033;-78
2021/05/14 05:46:15;;;;;;;1.20;0.60;;;12.60;99.90;;;;;;5045459;28;20025;-79
2021/05/14 05:48:45;;;;;;;1.00;0.50;;;12.60;99.90;;;;;;5032707;28;20025;-80
2021/05/14 05:51:11;;;;;;;1.23;0.52;;;12.60;99.90;;;;;;5026806;28;20557;-79
2021/05/14 05:53:37;;;;;;;1.25;0.70;;;12.70;99.90;;;;;;5026594;28;20039;-78
2021/05/14 05:56:03;;;;;;;0.88;0.50;;;12.70;99.90;;;;;;5026187;28;20033;-77
2021/05/14 05:58:31;;;;;;;1.95;1.10;;;12.60;99.90;;;;;;5026413;28;20100;-79
2021/05/14 06:00:56;;;;;;;2.58;1.30;;;12.60;99.90;;;;;;5026385;28;20395;-78
2021/05/14 06:03:23;;;;;;;3.17;1.92;;;12.70;99.90;;;;;;5026399;28;20033;-78
2021/05/14 06:05:49;;;;;;;4.15;1.80;;;12.60;99.90;;;;;;5025533;28;20378;-78
2021/05/14 06:08:15;;;;;;;2.90;1.75;;;12.70;99.90;;;;;;5046011;28;20029;-78
2021/05/14 06:10:41;;;;;;;3.97;1.60;;;12.80;99.90;;;;;;5046176;28;20375;-79
2021/05/14 06:13:07;;;;;;;3.05;1.60;;;12.70;99.90;;;;;;5043944;28;20073;-78
2021/05/14 06:15:33;;;;;;;2.70;1.45;;;12.70;99.90;;;;;;5047268;28;20063;-81
2021/05/14 06:17:59;;;;;;;2.00;1.20;;;12.80;99.90;;;;;;5053382;28;20029;-79
2021/05/14 06:20:26;;;;;;;3.10;1.67;;;12.70;99.90;;;;;;5047287;28;20028;-81
2021/05/14 06:22:52;;;;;;;2.92;1.45;;;12.70;99.90;;;;;;5030679;28;20090;-80
2021/05/14 06:25:18;;;;;;;4.05;1.73;;;12.80;99.90;;;;;;5026030;28;20612;-79
2021/05/14 06:27:44;;;;;;;3.13;1.63;;;12.80;99.90;;;;;;5025298;28;20041;-79
2021/05/14 06:30:11;;;;;;;3.33;1.70;;;12.80;99.90;;;;;;5025524;28;20159;-80
2021/05/14 06:32:36;;;;;;;3.40;1.88;;;12.90;99.90;;;;;;5026250;28;20418;-81
2021/05/14 06:35:02;;;;;;;3.80;2.20;;;12.90;99.90;;;;;;5025749;28;20029;-79
2021/05/14 06:37:30;;;;;;;3.63;2.10;;;12.90;99.90;;;;;;5025813;28;20072;-80
2021/05/14 06:39:57;;;;;;;3.70;2.33;;;12.90;99.90;;;;;;5033781;28;20778;-79
2021/05/14 06:42:23;;;;;;;3.42;2.05;;;13.00;99.90;;;;;;5028639;28;20053;-78
2021/05/14 06:44:49;;;;;;;3.05;1.90;;;13.30;99.90;;;;;;5025466;28;20072;-79
2021/05/14 06:47:14;;;;;;;2.85;1.15;;;13.60;99.90;;;;;;5025654;28;20437;-79
2021/05/14 06:49:40;;;;;;;1.80;1.08;;;13.80;99.90;;;;;;5032607;28;20082;-80
2021/05/14 06:52:06;;;;;;;1.20;0.75;;;14.00;99.90;;;;;;5044406;28;20170;-80
2021/05/14 06:54:31;;;;;;;2.55;1.20;;;14.10;99.90;;;;;;5045329;28;20032;-80
2021/05/14 06:56:57;;;;;;;1.23;0.70;;;14.20;99.90;;;;;;5028778;28;20037;-79
2021/05/14 06:59:23;;;;;;;1.58;0.95;;;14.00;99.90;;;;;;5025072;28;20033;-79
2021/05/14 07:01:49;;;;;;;1.40;0.80;;;14.00;99.90;;;;;;5027684;28;20033;-81
2021/05/14 07:04:15;;;;;;;1.02;0.70;;;14.00;99.90;;;;;;5043471;28;20014;-79
2021/05/14 07:06:41;;;;;;;2.13;1.02;;;13.90;99.90;;;;;;5025296;28;20044;-80
2021/05/14 07:09:07;;;;;;;1.80;0.80;;;14.30;99.90;;;;;;5025030;28;20075;-80
2021/05/14 07:11:33;;;;;;;4.78;0.88;;;14.80;99.90;;;;;;5024966;28;20132;-79
2021/05/14 07:13:58;;;;;;;1.55;1.00;;;15.20;99.90;;;;;;5040102;28;20040;-82
2021/05/14 07:16:24;;;;;;;1.65;0.60;;;15.70;99.90;;;;;;5042992;28;20048;-80
2021/05/14 07:18:50;;;;;;;1.95;0.80;;;16.50;99.90;;;;;;5044572;28;20091;-80
2021/05/14 07:21:16;;;;;;;1.85;0.93;;;16.30;99.90;;;;;;5044432;28;20496;-82
2021/05/14 07:23:41;;;;;;;4.20;2.00;;;16.00;99.90;;;;;;5044957;28;20100;-80
2021/05/14 07:26:07;;;;;;;3.17;1.27;;;16.30;99.90;;;;;;5044387;28;20031;-81
2021/05/14 07:28:33;;;;;;;2.40;0.90;;;15.80;99.90;;;;;;5027191;28;20029;-80
2021/05/14 07:30:59;;;;;;;1.70;0.80;;;16.20;99.90;;;;;;5038156;28;20025;-80
2021/05/14 07:33:24;;;;;;;1.23;0.50;;;17.60;99.90;;;;;;5025208;28;20033;-81
2021/05/14 07:35:50;;;;;;;1.35;0.50;;;17.20;99.90;;;;;;5024357;28;20128;-78
2021/05/14 07:38:16;;;;;;;1.70;0.82;;;16.50;99.90;;;;;;5024913;28;20056;-79
2021/05/14 07:40:43;;;;;;;1.00;0.55;;;16.10;99.90;;;;;;5024730;28;20108;-77
2021/05/14 07:43:09;;;;;;;2.55;0.95;;;15.90;99.90;;;;;;5024331;28;20053;-79
2021/05/14 07:45:35;;;;;;;2.13;0.80;;;15.80;99.90;;;;;;5024322;28;20052;-77
2021/05/14 07:48:02;;;;;;;1.55;0.70;;;16.50;99.90;;;;;;5040216;28;20379;-77
2021/05/14 07:50:28;;;;;;;1.80;0.70;;;17.60;99.90;;;;;;5043866;28;20490;-77
2021/05/14 07:52:53;;;;;;;0.90;0.45;;;18.80;99.90;;;;;;5039926;28;20086;-77
2021/05/14 07:55:19;;;;;;;1.55;0.50;;;18.90;99.90;;;;;;5042826;28;20032;-77
2021/05/14 07:57:45;;;;;;;2.55;0.88;;;17.80;99.70;;;;;;5044319;28;20025;-77
2021/05/14 08:00:11;;;;;;;0.47;0.35;;;16.90;99.90;;;;;;5043851;28;20017;-77
2021/05/14 08:02:37;;;;;;;1.48;0.52;;;16.60;99.90;;;;;;5043809;28;20029;-76
2021/05/14 08:05:03;;;;;;;0.63;0.50;;;17.30;99.90;;;;;;5028124;28;20091;-77
2021/05/14 08:07:29;;;;;;;2.25;0.70;;;16.80;99.90;;;;;;5027991;28;20648;-77
2021/05/14 08:09:54;;;;;;;3.60;1.15;;;16.90;99.90;;;;;;5027662;28;20063;-77
2021/05/14 08:12:22;;;;;;;1.10;0.40;;;19.00;99.90;;;;;;5027809;28;20051;-76
2021/05/14 08:14:48;;;;;;;2.03;0.90;;;18.60;99.40;;;;;;5027100;28;20021;-78
2021/05/14 08:17:13;;;;;;;4.78;0.73;;;17.80;99.90;;;;;;5027995;28;20601;-77
2021/05/14 08:19:39;;;;;;;1.83;0.82;;;17.00;99.90;;;;;;5027954;28;20033;-77
2021/05/14 08:22:05;;;;;;;1.63;0.75;;;16.70;99.90;;;;;;5027107;28;20193;-77
2021/05/14 08:24:30;;;;;;;0.93;0.45;;;16.70;99.90;;;;;;5032454;28;20447;-77
2021/05/14 08:26:56;;;;;;;1.13;0.45;;;16.60;99.90;;;;;;5046596;28;20043;-77
2021/05/14 08:29:22;;;;;;;2.22;0.63;;;17.10;99.90;;;;;;5047417;28;20053;-77
2021/05/14 08:31:48;;;;;;;1.30;0.63;;;16.60;99.90;;;;;;5046888;28;20071;-77
2021/05/14 08:34:13;;;;;;;1.55;0.60;;;17.00;99.90;;;;;;5043192;28;20587;-77
2021/05/14 08:36:41;;;;;;;0.80;0.40;;;17.00;99.90;;;;;;5027802;28;20029;-77
2021/05/14 08:39:07;;;;;;;3.60;0.63;;;17.80;99.90;;;;;;5044120;28;20046;-77
2021/05/14 08:41:35;;;;;;;2.45;0.50;;;17.60;99.60;;;;;;5047001;28;20032;-77
2021/05/14 08:44:01;;;;;;;1.63;0.82;;;16.90;99.90;;;;;;5047272;28;20108;-76
2021/05/14 08:46:29;;;;;;;0.95;0.50;;;16.70;98.90;;;;;;5027958;28;20044;-77
2021/05/14 08:48:56;;;;;;;0.82;0.20;;;16.60;99.90;;;;;;5027695;28;20661;-77
2021/05/14 08:51:27;;;;;;;1.13;0.45;;;16.80;99.90;;;;;;5025792;28;20053;-78
2021/05/14 08:54:00;;;;;;;2.47;0.60;;;17.20;99.90;;;;;;5025860;28;20037;-78
2021/05/14 08:56:26;;;;;;;2.78;0.57;;;17.40;99.90;;;;;;5026406;28;20394;-78
2021/05/14 08:58:52;;;;;;;0.80;0.30;;;17.70;99.50;;;;;;5026857;28;20030;-77
2021/05/14 09:01:17;;;;;;;1.55;0.40;;;17.50;98.00;;;;;;5027387;28;20052;-78
2021/05/14 09:04:19;;;;;;;1.52;0.52;;;17.30;97.40;;;;;;5031232;28;20021;-77
2021/05/14 09:06:46;;;;;;;0.75;0.40;;;17.10;98.30;;;;;;5026723;28;20189;-77
2021/05/14 09:09:13;;;;;;;2.60;0.60;;;17.20;98.50;;;;;;5026359;28;20053;-77
2021/05/14 09:11:48;;;;;;;0.52;0.20;;;17.00;98.00;;;;;;5026157;28;20107;-77
2021/05/14 09:14:36;;;;;;;0.65;0.30;;;16.70;97.00;;;;;;5031516;28;20025;-78
2021/05/14 09:17:12;;;;;;;0.73;0.20;;;16.80;96.60;;;;;;5046325;28;20629;-77
2021/05/14 09:19:40;;;;;;;0.20;0.20;;;17.30;97.40;;;;;;5044639;28;20126;-78
2021/05/14 09:22:17;;;;;;;0.85;0.40;;;17.80;97.50;;;;;;5044097;28;20200;-77
2021/05/14 09:24:47;;;;;;;3.25;0.60;;;18.40;97.20;;;;;;5047171;28;20018;-77
2021/05/14 09:27:32;;;;;;;1.25;0.50;;;18.70;97.40;;;;;;5046616;28;20021;-77
2021/05/14 09:29:59;;;;;;;1.92;0.90;;;18.80;97.30;;;;;;5029576;28;20022;-77
2021/05/14 09:32:28;;;;;;;0.40;0.38;;;18.50;95.90;;;;;;5037430;28;20083;-77
2021/05/14 09:34:56;;;;;;;0.90;0.40;;;18.60;96.50;;;;;;5045410;28;20083;-77
2021/05/14 09:37:24;;;;;;;4.60;0.63;;;18.40;95.60;;;;;;5046555;28;20174;-77
2021/05/14 09:40:11;;;;;;;3.70;0.70;;;18.40;97.40;;;;;;5045883;28;20059;-78
2021/05/14 09:42:36;;;;;;;1.85;0.60;;;18.80;97.00;;;;;;5034983;28;20050;-77
2021/05/14 09:45:19;;;;;;;0.93;0.45;;;18.90;97.30;;;;;;5042416;28;20387;-77
2021/05/14 09:47:58;;;;;;;1.40;0.45;;;19.20;97.20;;;;;;5026416;28;20087;-77
2021/05/14 09:50:31;;;;;;;9.50;0.70;;;18.90;95.70;;;;;;5026119;28;20112;-78
2021/05/14 09:53:11;;;;;;;1.08;0.40;;;18.30;96.40;;;;;;5025558;28;20491;-77
2021/05/14 09:55:39;;;;;;;2.80;0.60;;;18.70;95.90;;;;;;5026001;28;20381;-77
2021/05/14 09:58:18;;;;;;;4.60;0.90;;;19.10;95.60;;;;;;5025688;28;20119;-78
2021/05/14 10:00:45;;;;;;;1.45;0.60;;;19.30;95.80;;;;;;5026028;28;20025;-79
2021/05/14 10:03:14;;;;;;;1.15;0.47;;;19.30;95.70;;;;;;5027309;28;20388;-78
2021/05/14 10:05:41;;;;;;;2.78;0.73;;;19.30;96.00;;;;;;5042479;28;20086;-78
2021/05/14 10:08:07;;;;;;;0.68;0.32;;;19.30;94.00;;;;;;5045343;28;20029;-77
2021/05/14 10:10:35;;;;;;;0.77;0.40;;;19.00;94.00;;;;;;5044967;28;20043;-77
2021/05/14 10:13:01;;;;;;;0.55;0.40;;;19.30;94.60;;;;;;5043147;28;20041;-78
2021/05/14 10:15:27;;;;;;;0.75;0.30;;;19.70;94.10;;;;;;5045738;28;20033;-78
2021/05/14 10:17:54;;;;;;;1.67;0.28;;;20.00;94.80;;;;;;5035651;28;20079;-78
2021/05/14 10:20:26;;;;;;;4.03;0.73;;;19.80;93.90;;;;;;5035972;28;20021;-78
2021/05/14 10:22:53;;;;;;;0.73;0.30;;;19.60;93.50;;;;;;5026504;28;20391;-78
2021/05/14 10:25:49;;;;;;;0.57;0.20;;;19.30;91.40;;;;;;5023985;28;20456;-78
2021/05/14 10:28:24;;;;;;;1.08;0.38;;;19.50;91.60;;;;;;5028879;28;20132;-77
2021/05/14 10:31:07;;;;;;;0.40;0.17;;;19.20;92.10;;;;;;5024716;28;20022;-78
2021/05/14 10:33:46;;;;;;;0.57;0.28;;;19.30;93.10;;;;;;5025087;28;20036;-79
2021/05/14 10:36:15;;;;;;;0.95;0.40;;;19.30;92.20;;;;;;5026198;28;20509;-78
2021/05/14 10:38:41;;;;;;;1.05;0.38;;;19.40;92.40;;;;;;5035146;28;20576;-78
2021/05/14 10:41:33;;;;;;;0.63;0.20;;;19.20;93.80;;;;;;5024909;28;20025;-78
2021/05/14 10:44:04;;;;;;;1.10;0.22;;;19.40;92.00;;;;;;5022696;28;20037;-78
2021/05/14 10:46:31;;;;;;;0.32;0.20;;;19.60;92.00;;;;;;5026599;28;20483;-78
2021/05/14 10:49:10;;;;;;;0.65;0.30;;;19.60;91.70;;;;;;5044649;28;20052;-77
2021/05/14 10:51:51;;;;;;;0.88;0.20;;;19.50;92.30;;;;;;5044997;28;20033;-78
2021/05/14 10:54:39;;;;;;;0.30;0.20;;;19.90;93.40;;;;;;5034034;28;20040;-79
2021/05/14 10:57:07;;;;;;;0.25;0.10;;;20.00;91.50;;;;;;5024526;28;20022;-79
2021/05/14 10:59:37;;;;;;;0.77;0.40;;;19.90;92.50;;;;;;5024711;28;20029;-78
2021/05/14 11:02:28;;;;;;;0.20;0.20;;;20.20;91.60;;;;;;5024459;28;20029;-77
2021/05/14 11:05:01;;;;;;;0.77;0.30;;;19.90;91.00;;;;;;5024467;28;20371;-78
2021/05/14 11:07:37;;;;;;;1.48;0.35;;;20.20;91.40;;;;;;5024689;28;20060;-78
2021/05/14 11:10:27;;;;;;;0.88;0.20;;;20.50;89.30;;;;;;5024173;28;20029;-78
2021/05/14 11:12:53;;;;;;;0.70;0.30;;;20.00;91.40;;;;;;5031239;28;20106;-78
2021/05/14 11:15:28;;;;;;;0.43;0.22;;;20.40;91.70;;;;;;5028413;28;20102;-78
2021/05/14 11:18:05;;;;;;;1.40;0.30;;;20.50;90.20;;;;;;5024037;28;20051;-77
2021/05/14 11:20:41;;;;;;;0.73;0.38;;;20.60;91.40;;;;;;5024636;28;20120;-78
2021/05/14 11:23:33;;;;;;;1.25;0.55;;;20.60;91.70;;;;;;5024423;28;20048;-78
2021/05/14 11:25:59;;;;;;;0.63;0.30;;;20.90;91.90;;;;;;5023895;28;20025;-79
2021/05/14 11:28:45;;;;;;;1.98;0.22;;;20.40;91.10;;;;;;5035537;28;20645;-78
2021/05/14 11:31:19;;;;;;;0.60;0.30;;;20.70;91.20;;;;;;5042634;28;20032;-79
2021/05/14 11:33:50;;;;;;;1.77;0.35;;;20.70;90.90;;;;;;5024419;28;20092;-78
2021/05/14 11:36:16;;;;;;;1.65;0.30;;;20.20;87.80;;;;;;5024055;28;20021;-78
2021/05/14 11:38:59;;;;;;;3.38;0.30;;;20.20;90.00;;;;;;5024853;28;20108;-78
2021/05/14 11:41:29;;;;;;;0.45;0.20;;;20.50;90.60;;;;;;5023994;28;20026;-78
2021/05/14 11:43:56;;;;;;;0.75;0.30;;;20.80;90.10;;;;;;5023708;28;20033;-77
2021/05/14 11:46:26;;;;;;;0.50;0.28;;;21.00;88.80;;;;;;5042647;28;20033;-78
2021/05/14 11:48:52;;;;;;;2.10;0.40;;;21.10;89.90;;;;;;5043986;28;20521;-77
2021/05/14 11:51:18;;;;;;;1.65;0.75;;;21.40;88.90;;;;;;5044000;28;20029;-78
2021/05/14 11:53:44;;;;;;;0.75;0.20;;;21.50;90.00;;;;;;5027861;28;20681;-78
2021/05/14 11:56:10;;;;;;;2.17;1.05;;;21.10;86.50;;;;;;5024002;28;20059;-77
2021/05/14 11:58:35;;;;;;;0.73;0.25;;;21.60;91.40;;;;;;5024093;28;20029;-78
2021/05/14 12:01:03;;;;;;;0.75;0.20;;;21.60;89.60;;;;;;5023726;28;20021;-77
2021/05/14 12:03:29;;;;;;;0.68;0.47;;;21.80;91.00;;;;;;5023557;28;20057;-78
2021/05/14 12:06:06;;;;;;;1.02;0.50;;;21.60;90.40;;;;;;5024093;28;20053;-78
2021/05/14 12:08:32;;;;;;;0.30;0.20;;;21.90;90.50;;;;;;5024417;28;20040;-78
2021/05/14 12:11:01;;;;;;;2.20;0.52;;;22.00;89.00;;;;;;5023709;28;20061;-78
2021/05/14 12:13:32;;;;;;;1.30;0.40;;;21.70;90.00;;;;;;5023957;28;20383;-78
2021/05/14 12:16:04;;;;;;;0.82;0.28;;;22.00;90.50;;;;;;5023739;28;20056;-78
2021/05/14 12:18:35;;;;;;;0.25;0.17;;;22.20;90.60;;;;;;5025955;28;20060;-78
2021/05/14 12:21:02;;;;;;;0.90;0.30;;;22.20;90.30;;;;;;5043874;28;20024;-78
2021/05/14 12:23:29;;;;;;;0.88;0.20;;;21.90;89.40;;;;;;5039724;28;20037;-79
2021/05/14 12:26:00;;;;;;;1.30;0.30;;;21.50;89.60;;;;;;5023382;28;20036;-78
2021/05/14 12:28:43;;;;;;;1.08;0.40;;;21.30;89.90;;;;;;5024025;28;20029;-78
2021/05/14 12:31:10;;;;;;;0.35;0.20;;;21.80;90.20;;;;;;5023642;28;20032;-78
2021/05/14 12:33:55;;;;;;;0.45;0.20;;;21.90;90.40;;;;;;5023432;28;20030;-79
2021/05/14 12:36:32;;;;;;;1.80;0.63;;;21.40;86.10;;;;;;5023603;28;20021;-78
2021/05/14 12:39:15;;;;;;;3.13;0.50;;;21.20;87.20;;;;;;5023211;28;20029;-77
2021/05/14 12:41:57;;;;;;;3.17;0.70;;;21.70;90.20;;;;;;5023818;28;20048;-78
2021/05/14 12:44:37;;;;;;;2.20;0.32;;;22.30;89.70;;;;;;5029992;28;20659;-78
2021/05/14 12:47:14;;;;;;;1.95;0.52;;;22.10;88.30;;;;;;5040385;28;20483;-78
2021/05/14 12:50:02;;;;;;;3.80;0.50;;;22.10;89.00;;;;;;5045366;28;20064;-78
2021/05/14 12:52:35;;;;;;;2.00;0.55;;;22.50;90.50;;;;;;5043351;28;20040;-78
2021/05/14 12:55:13;;;;;;;3.42;0.60;;;22.70;89.00;;;;;;5026841;28;20032;-78
2021/05/14 12:57:44;;;;;;;1.05;0.50;;;22.70;86.80;;;;;;5027140;28;20028;-78
2021/05/14 13:00:14;;;;;;;2.70;0.95;;;22.80;88.00;;;;;;5038828;28;20033;-78
2021/05/14 13:02:40;;;;;;;6.47;0.80;;;22.80;88.30;;;;;;5033335;28;20021;-78